Time,TemperatureF,DewpointF,PressureIn,WindDirection,WindDirectionDegrees,WindSpeedMPH,WindSpeedGustMPH,Humidity,HourlyPrecipIn,Conditions,Clouds,dailyrainin,SoftwareType,DateUTC
2013-11-18 09:43:00,35.0,19.0,29.62,North,351,20.0,36.0,51,0.00,,,0.57,,2013-11-18 15:43:00,
2013-11-18 09:54:00,35.0,20.0,29.62,North,352,17.0,31.0,54,0.00,,,0.55,,2013-11-18 15:54:00,
2013-11-18 10:13:00,35.0,21.0,29.62,NNW,343,15.0,27.0,56,0.00,,,0.50,,2013-11-18 16:13:00,
2013-11-18 10:23:00,35.0,21.0,29.62,NNW,343,15.0,27.0,56,0.00,,,0.50,,2013-11-18 16:23:00,
2013-11-18 10:43:00,35.0,20.0,29.66,North,355,15.0,30.0,55,0.00,,,0.47,,2013-11-18 16:43:00,
2013-11-18 10:52:00,35.0,20.0,29.66,North,352,16.0,31.0,55,0.00,,,0.47,,2013-11-18 16:52:00,
2013-11-18 11:02:00,35.0,20.0,29.66,North,352,16.0,31.0,55,0.00,,,0.47,,2013-11-18 17:02:00,
2013-11-18 11:12:00,35.0,20.0,29.66,North,352,16.0,31.0,55,0.00,,,0.47,,2013-11-18 17:12:00,
2013-11-18 11:22:00,35.0,20.0,29.66,North,352,16.0,31.0,55,0.00,,,0.47,,2013-11-18 17:22:00,
2013-11-18 11:43:00,35.0,20.0,29.69,North,356,17.0,28.0,55,0.00,,,0.38,,2013-11-18 17:43:00,
2013-11-18 11:52:00,35.0,20.0,29.69,North,356,17.0,28.0,55,0.00,,,0.38,,2013-11-18 17:52:00,
2013-11-18 12:23:00,35.0,21.0,29.71,NNW,348,14.0,24.0,57,0.00,,,0.27,,2013-11-18 18:23:00,
2013-11-18 12:52:00,34.0,21.0,29.72,North,352,16.0,30.0,58,0.00,,,0.25,,2013-11-18 18:52:00,
2013-11-18 13:21:00,35.0,21.0,29.75,North,354,15.0,26.0,57,0.00,,,0.25,,2013-11-18 19:21:00,
2013-11-18 13:42:00,35.0,22.0,29.75,North,353,15.0,25.0,58,0.00,,,0.25,,2013-11-18 19:42:00,
2013-11-18 13:52:00,35.0,22.0,29.75,North,353,15.0,25.0,58,0.00,,,0.25,,2013-11-18 19:52:00,
2013-11-18 14:22:00,35.0,20.0,29.78,North,353,16.0,28.0,54,0.00,,,0.20,,2013-11-18 20:22:00,
2013-11-18 14:31:00,35.0,19.0,29.80,North,353,15.0,27.0,52,0.00,,,0.20,,2013-11-18 20:31:00,
2013-11-18 14:42:00,35.0,20.0,29.78,North,352,15.0,31.0,54,0.00,,,0.20,,2013-11-18 20:42:00,
2013-11-18 14:52:00,35.0,19.0,29.80,North,353,15.0,27.0,52,0.00,,,0.20,,2013-11-18 20:52:00,
2013-11-18 15:02:00,35.0,19.0,29.80,North,353,15.0,27.0,52,0.00,,,0.20,,2013-11-18 21:02:00,
2013-11-18 15:11:00,35.0,19.0,29.80,North,353,15.0,27.0,52,0.00,,,0.20,,2013-11-18 21:11:00,
2013-11-18 15:22:00,35.0,19.0,29.80,North,353,15.0,27.0,52,0.00,,,0.20,,2013-11-18 21:22:00,
2013-11-18 15:52:00,34.0,19.0,29.85,North,354,10.0,20.0,53,0.00,,,0.20,,2013-11-18 21:52:00,
2013-11-18 15:54:00,34.0,18.0,29.84,North,356,15.0,24.0,52,0.00,,,0.20,,2013-11-18 21:54:00,
2013-11-18 16:22:00,34.0,19.0,29.85,North,354,10.0,20.0,53,0.00,,,0.20,,2013-11-18 22:22:00,
2013-11-18 16:33:00,34.0,19.0,29.85,North,354,10.0,20.0,53,0.00,,,0.20,,2013-11-18 22:33:00,
2013-11-18 21:22:00,32.0,18.0,30.00,North,357,11.0,19.0,56,0.00,,,0.00,,2013-11-19 03:22:00,
2013-11-18 21:33:00,32.0,18.0,30.00,North,357,11.0,19.0,56,0.00,,,0.00,,2013-11-19 03:33:00,
2013-11-18 21:54:00,31.0,18.0,30.01,North,354,10.0,18.0,57,0.00,,,0.00,,2013-11-19 03:54:00,
2013-11-18 22:13:00,31.0,17.0,30.01,North,352,9.0,17.0,56,0.00,,,0.00,,2013-11-19 04:13:00,
2013-11-18 22:23:00,31.0,17.0,30.01,North,352,9.0,17.0,56,0.00,,,0.00,,2013-11-19 04:23:00,
2013-11-18 22:42:00,31.0,18.0,30.03,North,356,10.0,18.0,57,0.00,,,0.00,,2013-11-19 04:42:00,
2013-11-18 22:52:00,31.0,18.0,30.03,North,354,10.0,17.0,58,0.00,,,0.00,,2013-11-19 04:52:00,
2013-11-18 23:02:00,31.0,18.0,30.03,North,354,10.0,17.0,58,0.00,,,0.00,,2013-11-19 05:02:00,
2013-11-18 23:22:00,31.0,18.0,30.04,North,356,9.0,16.0,58,0.00,,,0.00,,2013-11-19 05:22:00,
2013-11-18 23:43:00,31.0,18.0,30.05,North,354,10.0,14.0,58,0.00,,,0.00,,2013-11-19 05:43:00,
2013-11-18 23:53:00,31.0,18.0,30.05,North,353,9.0,17.0,58,0.00,,,0.00,,2013-11-19 05:53:00,